sensor_id;sensor_type;location;lat;lon;timestamp;P1;durP1;ratioP1;P2;durP2;ratioP2
79670;SDS011;69137;50.878;8.050;2024-02-26T00:02:04;1.70;;;1.20;;
79670;SDS011;69137;50.878;8.050;2024-02-26T00:04:29;0.80;;;0.70;;
79670;SDS011;69137;50.878;8.050;2024-02-26T00:06:54;1.30;;;0.90;;
79670;SDS011;69137;50.878;8.050;2024-02-26T00:09:21;1.15;;;0.95;;
79670;SDS011;69137;50.878;8.050;2024-02-26T00:11:46;1.00;;;0.80;;
79670;SDS011;69137;50.878;8.050;2024-02-26T00:14:11;1.52;;;0.93;;
79670;SDS011;69137;50.878;8.050;2024-02-26T00:16:39;1.48;;;0.93;;
79670;SDS011;69137;50.878;8.050;2024-02-26T00:19:05;1.65;;;1.10;;
79670;SDS011;69137;50.878;8.050;2024-02-26T00:21:30;1.17;;;1.00;;
79670;SDS011;69137;50.878;8.050;2024-02-26T00:23:55;2.23;;;1.10;;
79670;SDS011;69137;50.878;8.050;2024-02-26T00:26:21;1.20;;;1.00;;
79670;SDS011;69137;50.878;8.050;2024-02-26T00:28:46;1.97;;;1.27;;
79670;SDS011;69137;50.878;8.050;2024-02-26T00:31:11;2.10;;;1.10;;
79670;SDS011;69137;50.878;8.050;2024-02-26T00:33:36;3.40;;;1.30;;
79670;SDS011;69137;50.878;8.050;2024-02-26T00:36:02;1.47;;;1.20;;
79670;SDS011;69137;50.878;8.050;2024-02-26T00:38:27;1.50;;;0.77;;
79670;SDS011;69137;50.878;8.050;2024-02-26T00:40:52;2.20;;;1.20;;
79670;SDS011;69137;50.878;8.050;2024-02-26T00:43:18;1.60;;;1.00;;
79670;SDS011;69137;50.878;8.050;2024-02-26T00:45:43;1.90;;;0.80;;
79670;SDS011;69137;50.878;8.050;2024-02-26T00:48:08;1.30;;;0.90;;
79670;SDS011;69137;50.878;8.050;2024-02-26T00:50:34;1.80;;;1.20;;
79670;SDS011;69137;50.878;8.050;2024-02-26T00:52:59;1.55;;;1.08;;
79670;SDS011;69137;50.878;8.050;2024-02-26T00:55:25;1.95;;;1.17;;
79670;SDS011;69137;50.878;8.050;2024-02-26T00:57:51;1.65;;;1.17;;
79670;SDS011;69137;50.878;8.050;2024-02-26T01:00:17;1.95;;;1.20;;
79670;SDS011;69137;50.878;8.050;2024-02-26T01:02:42;1.92;;;1.00;;
79670;SDS011;69137;50.878;8.050;2024-02-26T01:05:08;1.50;;;1.00;;
79670;SDS011;69137;50.878;8.050;2024-02-26T01:07:36;1.60;;;1.05;;
79670;SDS011;69137;50.878;8.050;2024-02-26T01:10:02;1.85;;;1.08;;
79670;SDS011;69137;50.878;8.050;2024-02-26T01:12:28;2.88;;;1.17;;
79670;SDS011;69137;50.878;8.050;2024-02-26T01:14:53;2.13;;;1.25;;
79670;SDS011;69137;50.878;8.050;2024-02-26T01:17:18;2.40;;;1.27;;
79670;SDS011;69137;50.878;8.050;2024-02-26T01:19:44;1.97;;;1.17;;
79670;SDS011;69137;50.878;8.050;2024-02-26T01:22:09;1.63;;;1.10;;
79670;SDS011;69137;50.878;8.050;2024-02-26T01:24:34;1.90;;;1.43;;
79670;SDS011;69137;50.878;8.050;2024-02-26T01:27:00;2.10;;;1.20;;
79670;SDS011;69137;50.878;8.050;2024-02-26T01:29:25;1.30;;;1.10;;
79670;SDS011;69137;50.878;8.050;2024-02-26T01:31:50;1.37;;;1.00;;
79670;SDS011;69137;50.878;8.050;2024-02-26T01:34:15;1.87;;;1.17;;
79670;SDS011;69137;50.878;8.050;2024-02-26T01:36:42;2.22;;;1.30;;
79670;SDS011;69137;50.878;8.050;2024-02-26T01:39:07;2.30;;;1.50;;
79670;SDS011;69137;50.878;8.050;2024-02-26T01:41:33;1.53;;;1.03;;
79670;SDS011;69137;50.878;8.050;2024-02-26T01:43:58;1.60;;;1.00;;
79670;SDS011;69137;50.878;8.050;2024-02-26T01:46:23;1.40;;;1.00;;
79670;SDS011;69137;50.878;8.050;2024-02-26T01:48:48;2.80;;;1.20;;
79670;SDS011;69137;50.878;8.050;2024-02-26T01:51:15;2.33;;;1.20;;
79670;SDS011;69137;50.878;8.050;2024-02-26T01:53:40;1.58;;;1.08;;
79670;SDS011;69137;50.878;8.050;2024-02-26T01:56:06;1.60;;;1.30;;
79670;SDS011;69137;50.878;8.050;2024-02-26T01:58:32;1.25;;;1.02;;
79670;SDS011;69137;50.878;8.050;2024-02-26T02:01:00;2.03;;;1.00;;
79670;SDS011;69137;50.878;8.050;2024-02-26T02:03:27;1.70;;;1.20;;
79670;SDS011;69137;50.878;8.050;2024-02-26T02:05:53;2.50;;;1.00;;
79670;SDS011;69137;50.878;8.050;2024-02-26T02:08:19;1.63;;;1.15;;
79670;SDS011;69137;50.878;8.050;2024-02-26T02:10:44;2.30;;;1.10;;
79670;SDS011;69137;50.878;8.050;2024-02-26T02:13:12;2.00;;;1.02;;
79670;SDS011;69137;50.878;8.050;2024-02-26T02:15:38;1.88;;;1.20;;
79670;SDS011;69137;50.878;8.050;2024-02-26T02:18:04;2.15;;;1.30;;
79670;SDS011;69137;50.878;8.050;2024-02-26T02:20:33;1.73;;;1.15;;
79670;SDS011;69137;50.878;8.050;2024-02-26T02:22:59;1.38;;;1.10;;
79670;SDS011;69137;50.878;8.050;2024-02-26T02:25:24;2.50;;;1.20;;
79670;SDS011;69137;50.878;8.050;2024-02-26T02:27:49;1.80;;;1.13;;
79670;SDS011;69137;50.878;8.050;2024-02-26T02:30:16;1.88;;;1.30;;
79670;SDS011;69137;50.878;8.050;2024-02-26T02:32:42;1.53;;;1.10;;
79670;SDS011;69137;50.878;8.050;2024-02-26T02:35:08;2.30;;;1.30;;
79670;SDS011;69137;50.878;8.050;2024-02-26T02:37:34;1.23;;;1.05;;
79670;SDS011;69137;50.878;8.050;2024-02-26T02:39:59;3.83;;;1.00;;
79670;SDS011;69137;50.878;8.050;2024-02-26T02:42:25;1.40;;;1.20;;
79670;SDS011;69137;50.878;8.050;2024-02-26T02:44:51;1.80;;;1.15;;
79670;SDS011;69137;50.878;8.050;2024-02-26T02:47:16;2.10;;;1.33;;
79670;SDS011;69137;50.878;8.050;2024-02-26T02:49:42;1.30;;;1.13;;
79670;SDS011;69137;50.878;8.050;2024-02-26T02:52:07;1.50;;;1.10;;
79670;SDS011;69137;50.878;8.050;2024-02-26T02:54:32;3.67;;;1.27;;
79670;SDS011;69137;50.878;8.050;2024-02-26T02:56:57;2.67;;;1.20;;
79670;SDS011;69137;50.878;8.050;2024-02-26T02:59:23;1.63;;;1.15;;
79670;SDS011;69137;50.878;8.050;2024-02-26T03:01:48;2.43;;;1.30;;
79670;SDS011;69137;50.878;8.050;2024-02-26T03:04:14;3.28;;;1.58;;
79670;SDS011;69137;50.878;8.050;2024-02-26T03:06:39;2.83;;;1.42;;
79670;SDS011;69137;50.878;8.050;2024-02-26T03:09:05;1.83;;;1.00;;
79670;SDS011;69137;50.878;8.050;2024-02-26T03:11:30;1.70;;;1.10;;
79670;SDS011;69137;50.878;8.050;2024-02-26T03:13:55;1.33;;;1.10;;
79670;SDS011;69137;50.878;8.050;2024-02-26T03:16:21;2.10;;;1.37;;
79670;SDS011;69137;50.878;8.050;2024-02-26T03:18:46;4.73;;;1.30;;
79670;SDS011;69137;50.878;8.050;2024-02-26T03:21:11;1.48;;;1.10;;
79670;SDS011;69137;50.878;8.050;2024-02-26T03:23:36;2.40;;;1.20;;
79670;SDS011;69137;50.878;8.050;2024-02-26T03:26:05;2.33;;;1.20;;
79670;SDS011;69137;50.878;8.050;2024-02-26T03:30:58;1.80;;;1.02;;
79670;SDS011;69137;50.878;8.050;2024-02-26T03:33:24;1.67;;;1.10;;
79670;SDS011;69137;50.878;8.050;2024-02-26T03:35:51;2.37;;;1.20;;
79670;SDS011;69137;50.878;8.050;2024-02-26T03:38:16;2.58;;;1.27;;
79670;SDS011;69137;50.878;8.050;2024-02-26T03:40:42;1.73;;;1.10;;
79670;SDS011;69137;50.878;8.050;2024-02-26T03:43:07;4.13;;;1.50;;
79670;SDS011;69137;50.878;8.050;2024-02-26T03:45:33;3.90;;;1.50;;
79670;SDS011;69137;50.878;8.050;2024-02-26T03:47:58;2.13;;;1.15;;
79670;SDS011;69137;50.878;8.050;2024-02-26T03:50:23;4.03;;;1.63;;
79670;SDS011;69137;50.878;8.050;2024-02-26T03:52:49;3.63;;;1.30;;
79670;SDS011;69137;50.878;8.050;2024-02-26T03:55:14;4.15;;;1.35;;
79670;SDS011;69137;50.878;8.050;2024-02-26T03:57:39;3.43;;;1.23;;
79670;SDS011;69137;50.878;8.050;2024-02-26T04:00:05;2.13;;;1.40;;
79670;SDS011;69137;50.878;8.050;2024-02-26T04:02:31;2.33;;;1.42;;
79670;SDS011;69137;50.878;8.050;2024-02-26T04:04:56;1.53;;;1.03;;
79670;SDS011;69137;50.878;8.050;2024-02-26T04:07:22;1.92;;;1.20;;
79670;SDS011;69137;50.878;8.050;2024-02-26T04:09:47;1.37;;;1.17;;
79670;SDS011;69137;50.878;8.050;2024-02-26T04:12:12;2.03;;;1.20;;
79670;SDS011;69137;50.878;8.050;2024-02-26T04:14:38;1.63;;;1.20;;
79670;SDS011;69137;50.878;8.050;2024-02-26T04:17:03;2.77;;;1.63;;
79670;SDS011;69137;50.878;8.050;2024-02-26T04:19:29;1.83;;;1.20;;
79670;SDS011;69137;50.878;8.050;2024-02-26T04:21:54;2.00;;;1.20;;
79670;SDS011;69137;50.878;8.050;2024-02-26T04:24:20;2.65;;;1.30;;
79670;SDS011;69137;50.878;8.050;2024-02-26T04:26:45;2.07;;;1.33;;
79670;SDS011;69137;50.878;8.050;2024-02-26T04:29:10;2.43;;;1.23;;
79670;SDS011;69137;50.878;8.050;2024-02-26T04:31:37;1.40;;;1.00;;
79670;SDS011;69137;50.878;8.050;2024-02-26T04:34:02;1.98;;;1.30;;
79670;SDS011;69137;50.878;8.050;2024-02-26T04:36:28;3.85;;;1.40;;
79670;SDS011;69137;50.878;8.050;2024-02-26T04:38:53;2.97;;;1.20;;
79670;SDS011;69137;50.878;8.050;2024-02-26T04:41:20;1.80;;;1.27;;
79670;SDS011;69137;50.878;8.050;2024-02-26T04:43:46;2.30;;;1.50;;
79670;SDS011;69137;50.878;8.050;2024-02-26T04:46:11;2.47;;;1.40;;
79670;SDS011;69137;50.878;8.050;2024-02-26T04:48:36;2.97;;;1.53;;
79670;SDS011;69137;50.878;8.050;2024-02-26T04:51:03;3.88;;;1.60;;
79670;SDS011;69137;50.878;8.050;2024-02-26T04:53:28;2.28;;;1.40;;
79670;SDS011;69137;50.878;8.050;2024-02-26T04:55:54;1.77;;;1.03;;
79670;SDS011;69137;50.878;8.050;2024-02-26T04:58:19;2.25;;;1.40;;
79670;SDS011;69137;50.878;8.050;2024-02-26T05:00:45;5.00;;;1.30;;
79670;SDS011;69137;50.878;8.050;2024-02-26T05:03:10;2.40;;;1.33;;
79670;SDS011;69137;50.878;8.050;2024-02-26T05:05:40;3.63;;;1.60;;
79670;SDS011;69137;50.878;8.050;2024-02-26T05:08:05;2.35;;;1.35;;
79670;SDS011;69137;50.878;8.050;2024-02-26T05:10:32;6.05;;;1.33;;
79670;SDS011;69137;50.878;8.050;2024-02-26T05:12:57;2.83;;;1.35;;
79670;SDS011;69137;50.878;8.050;2024-02-26T05:15:23;2.60;;;1.60;;
79670;SDS011;69137;50.878;8.050;2024-02-26T05:17:48;2.40;;;1.33;;
79670;SDS011;69137;50.878;8.050;2024-02-26T05:20:13;1.97;;;1.10;;
79670;SDS011;69137;50.878;8.050;2024-02-26T05:22:38;2.17;;;1.50;;
79670;SDS011;69137;50.878;8.050;2024-02-26T05:25:04;4.07;;;1.50;;
79670;SDS011;69137;50.878;8.050;2024-02-26T05:27:29;2.10;;;1.45;;
79670;SDS011;69137;50.878;8.050;2024-02-26T05:29:55;2.60;;;1.63;;
79670;SDS011;69137;50.878;8.050;2024-02-26T05:32:20;3.10;;;1.60;;
79670;SDS011;69137;50.878;8.050;2024-02-26T05:34:45;3.93;;;1.37;;
79670;SDS011;69137;50.878;8.050;2024-02-26T05:37:10;2.00;;;1.40;;
79670;SDS011;69137;50.878;8.050;2024-02-26T05:39:36;2.45;;;1.52;;
79670;SDS011;69137;50.878;8.050;2024-02-26T05:42:02;3.17;;;1.55;;
79670;SDS011;69137;50.878;8.050;2024-02-26T05:44:27;2.40;;;1.38;;
79670;SDS011;69137;50.878;8.050;2024-02-26T05:46:52;2.22;;;1.25;;
79670;SDS011;69137;50.878;8.050;2024-02-26T05:49:18;2.05;;;1.20;;
79670;SDS011;69137;50.878;8.050;2024-02-26T05:51:43;2.60;;;1.50;;
79670;SDS011;69137;50.878;8.050;2024-02-26T05:54:08;3.90;;;1.53;;
79670;SDS011;69137;50.878;8.050;2024-02-26T05:56:35;2.40;;;1.40;;
79670;SDS011;69137;50.878;8.050;2024-02-26T05:59:00;2.22;;;1.48;;
79670;SDS011;69137;50.878;8.050;2024-02-26T06:01:25;2.43;;;1.30;;
79670;SDS011;69137;50.878;8.050;2024-02-26T06:03:51;4.40;;;1.90;;
79670;SDS011;69137;50.878;8.050;2024-02-26T06:06:16;1.77;;;1.40;;
79670;SDS011;69137;50.878;8.050;2024-02-26T06:08:42;2.75;;;1.50;;
79670;SDS011;69137;50.878;8.050;2024-02-26T06:11:08;3.60;;;1.52;;
79670;SDS011;69137;50.878;8.050;2024-02-26T06:13:34;3.47;;;1.50;;
79670;SDS011;69137;50.878;8.050;2024-02-26T06:15:59;2.42;;;1.60;;
79670;SDS011;69137;50.878;8.050;2024-02-26T06:18:25;4.03;;;1.63;;
79670;SDS011;69137;50.878;8.050;2024-02-26T06:20:50;2.72;;;1.45;;
79670;SDS011;69137;50.878;8.050;2024-02-26T06:23:16;2.27;;;1.60;;
79670;SDS011;69137;50.878;8.050;2024-02-26T06:25:41;4.30;;;1.88;;
79670;SDS011;69137;50.878;8.050;2024-02-26T06:28:07;2.58;;;1.77;;
79670;SDS011;69137;50.878;8.050;2024-02-26T06:30:33;2.47;;;1.60;;
79670;SDS011;69137;50.878;8.050;2024-02-26T06:32:58;8.98;;;1.90;;
79670;SDS011;69137;50.878;8.050;2024-02-26T06:35:24;2.42;;;1.20;;
79670;SDS011;69137;50.878;8.050;2024-02-26T06:37:49;2.37;;;1.33;;
79670;SDS011;69137;50.878;8.050;2024-02-26T06:40:17;4.97;;;1.60;;
79670;SDS011;69137;50.878;8.050;2024-02-26T06:42:43;1.42;;;1.20;;
79670;SDS011;69137;50.878;8.050;2024-02-26T06:45:08;4.00;;;2.42;;
79670;SDS011;69137;50.878;8.050;2024-02-26T06:47:34;3.75;;;1.60;;
79670;SDS011;69137;50.878;8.050;2024-02-26T06:49:59;1.77;;;1.40;;
79670;SDS011;69137;50.878;8.050;2024-02-26T06:52:25;3.03;;;1.58;;
79670;SDS011;69137;50.878;8.050;2024-02-26T06:54:51;3.95;;;1.35;;
79670;SDS011;69137;50.878;8.050;2024-02-26T06:57:17;2.65;;;1.50;;
79670;SDS011;69137;50.878;8.050;2024-02-26T06:59:46;2.88;;;1.40;;
79670;SDS011;69137;50.878;8.050;2024-02-26T07:02:12;2.03;;;1.42;;
79670;SDS011;69137;50.878;8.050;2024-02-26T07:04:38;2.42;;;1.52;;
79670;SDS011;69137;50.878;8.050;2024-02-26T07:07:03;2.13;;;1.52;;
79670;SDS011;69137;50.878;8.050;2024-02-26T07:09:29;3.77;;;1.57;;
79670;SDS011;69137;50.878;8.050;2024-02-26T07:11:54;4.07;;;1.70;;
79670;SDS011;69137;50.878;8.050;2024-02-26T07:14:19;1.93;;;1.50;;
79670;SDS011;69137;50.878;8.050;2024-02-26T07:16:44;2.63;;;1.50;;
79670;SDS011;69137;50.878;8.050;2024-02-26T07:19:10;2.40;;;1.40;;
79670;SDS011;69137;50.878;8.050;2024-02-26T07:21:35;2.63;;;1.43;;
79670;SDS011;69137;50.878;8.050;2024-02-26T07:24:00;2.67;;;1.50;;
79670;SDS011;69137;50.878;8.050;2024-02-26T07:26:25;1.90;;;1.43;;
79670;SDS011;69137;50.878;8.050;2024-02-26T07:28:51;3.53;;;1.50;;
79670;SDS011;69137;50.878;8.050;2024-02-26T07:31:20;3.75;;;1.50;;
79670;SDS011;69137;50.878;8.050;2024-02-26T07:33:45;3.13;;;1.55;;
79670;SDS011;69137;50.878;8.050;2024-02-26T07:36:10;2.08;;;1.38;;
79670;SDS011;69137;50.878;8.050;2024-02-26T07:38:36;2.60;;;1.40;;
79670;SDS011;69137;50.878;8.050;2024-02-26T07:41:01;2.93;;;1.90;;
79670;SDS011;69137;50.878;8.050;2024-02-26T07:43:27;1.98;;;1.25;;
79670;SDS011;69137;50.878;8.050;2024-02-26T07:45:52;2.00;;;1.57;;
79670;SDS011;69137;50.878;8.050;2024-02-26T07:48:18;2.30;;;1.50;;
79670;SDS011;69137;50.878;8.050;2024-02-26T07:50:43;3.37;;;1.60;;
79670;SDS011;69137;50.878;8.050;2024-02-26T07:53:08;2.63;;;1.70;;
79670;SDS011;69137;50.878;8.050;2024-02-26T07:55:34;2.10;;;1.53;;
79670;SDS011;69137;50.878;8.050;2024-02-26T07:57:59;3.13;;;1.77;;
79670;SDS011;69137;50.878;8.050;2024-02-26T08:00:25;2.35;;;1.52;;
79670;SDS011;69137;50.878;8.050;2024-02-26T08:02:50;2.73;;;1.53;;
79670;SDS011;69137;50.878;8.050;2024-02-26T08:05:15;2.87;;;1.67;;
79670;SDS011;69137;50.878;8.050;2024-02-26T08:07:41;4.07;;;1.80;;
79670;SDS011;69137;50.878;8.050;2024-02-26T08:10:06;3.03;;;1.70;;
79670;SDS011;69137;50.878;8.050;2024-02-26T08:12:32;6.55;;;1.90;;
79670;SDS011;69137;50.878;8.050;2024-02-26T08:14:58;2.97;;;1.53;;
79670;SDS011;69137;50.878;8.050;2024-02-26T08:17:24;3.00;;;1.67;;
79670;SDS011;69137;50.878;8.050;2024-02-26T08:19:49;2.17;;;1.65;;
79670;SDS011;69137;50.878;8.050;2024-02-26T08:22:14;3.40;;;1.90;;
79670;SDS011;69137;50.878;8.050;2024-02-26T08:24:42;3.58;;;1.70;;
79670;SDS011;69137;50.878;8.050;2024-02-26T08:27:07;3.00;;;1.85;;
79670;SDS011;69137;50.878;8.050;2024-02-26T08:29:33;3.13;;;1.70;;
79670;SDS011;69137;50.878;8.050;2024-02-26T08:31:58;2.47;;;1.50;;
79670;SDS011;69137;50.878;8.050;2024-02-26T08:34:24;3.15;;;1.73;;
79670;SDS011;69137;50.878;8.050;2024-02-26T08:36:50;2.58;;;1.65;;
79670;SDS011;69137;50.878;8.050;2024-02-26T08:39:16;5.10;;;1.88;;
79670;SDS011;69137;50.878;8.050;2024-02-26T08:41:42;3.92;;;2.13;;
79670;SDS011;69137;50.878;8.050;2024-02-26T08:44:08;3.80;;;1.60;;
79670;SDS011;69137;50.878;8.050;2024-02-26T08:46:33;3.23;;;1.73;;
79670;SDS011;69137;50.878;8.050;2024-02-26T08:48:58;2.60;;;1.63;;
79670;SDS011;69137;50.878;8.050;2024-02-26T08:51:23;3.37;;;1.90;;
79670;SDS011;69137;50.878;8.050;2024-02-26T08:53:49;3.10;;;1.33;;
79670;SDS011;69137;50.878;8.050;2024-02-26T08:56:16;3.15;;;1.80;;
79670;SDS011;69137;50.878;8.050;2024-02-26T08:58:43;2.83;;;1.73;;
79670;SDS011;69137;50.878;8.050;2024-02-26T09:01:09;5.03;;;1.90;;
79670;SDS011;69137;50.878;8.050;2024-02-26T09:03:34;4.77;;;2.03;;
79670;SDS011;69137;50.878;8.050;2024-02-26T09:05:59;5.20;;;1.77;;
79670;SDS011;69137;50.878;8.050;2024-02-26T09:08:25;2.70;;;1.77;;
79670;SDS011;69137;50.878;8.050;2024-02-26T09:10:50;2.50;;;1.67;;
79670;SDS011;69137;50.878;8.050;2024-02-26T09:13:15;4.75;;;2.10;;
79670;SDS011;69137;50.878;8.050;2024-02-26T09:15:41;3.93;;;2.47;;
79670;SDS011;69137;50.878;8.050;2024-02-26T09:18:06;4.00;;;2.43;;
79670;SDS011;69137;50.878;8.050;2024-02-26T09:20:31;4.67;;;2.10;;
79670;SDS011;69137;50.878;8.050;2024-02-26T09:22:56;3.00;;;2.10;;
79670;SDS011;69137;50.878;8.050;2024-02-26T09:25:22;5.27;;;2.10;;
79670;SDS011;69137;50.878;8.050;2024-02-26T09:27:47;5.00;;;2.33;;
79670;SDS011;69137;50.878;8.050;2024-02-26T09:30:13;4.05;;;2.10;;
79670;SDS011;69137;50.878;8.050;2024-02-26T09:32:41;2.65;;;1.85;;
79670;SDS011;69137;50.878;8.050;2024-02-26T09:35:06;6.20;;;2.00;;
79670;SDS011;69137;50.878;8.050;2024-02-26T09:37:32;3.28;;;1.90;;
79670;SDS011;69137;50.878;8.050;2024-02-26T09:39:58;3.08;;;1.70;;
79670;SDS011;69137;50.878;8.050;2024-02-26T09:42:25;5.40;;;2.10;;
79670;SDS011;69137;50.878;8.050;2024-02-26T09:44:51;2.92;;;1.98;;
79670;SDS011;69137;50.878;8.050;2024-02-26T09:47:20;2.85;;;1.70;;
79670;SDS011;69137;50.878;8.050;2024-02-26T09:49:48;7.70;;;2.30;;
79670;SDS011;69137;50.878;8.050;2024-02-26T09:52:16;5.10;;;2.15;;
79670;SDS011;69137;50.878;8.050;2024-02-26T09:54:46;4.10;;;2.03;;
79670;SDS011;69137;50.878;8.050;2024-02-26T09:57:13;3.00;;;1.90;;
79670;SDS011;69137;50.878;8.050;2024-02-26T09:59:41;5.80;;;2.28;;
79670;SDS011;69137;50.878;8.050;2024-02-26T10:02:08;5.63;;;2.42;;
79670;SDS011;69137;50.878;8.050;2024-02-26T10:04:36;3.80;;;2.20;;
79670;SDS011;69137;50.878;8.050;2024-02-26T10:07:03;7.63;;;2.40;;
79670;SDS011;69137;50.878;8.050;2024-02-26T10:09:29;2.78;;;2.03;;
79670;SDS011;69137;50.878;8.050;2024-02-26T10:11:56;4.40;;;2.15;;
79670;SDS011;69137;50.878;8.050;2024-02-26T10:14:22;2.83;;;1.83;;
79670;SDS011;69137;50.878;8.050;2024-02-26T10:16:47;2.72;;;1.98;;
79670;SDS011;69137;50.878;8.050;2024-02-26T10:19:27;4.22;;;2.60;;
79670;SDS011;69137;50.878;8.050;2024-02-26T10:21:56;3.63;;;1.90;;
79670;SDS011;69137;50.878;8.050;2024-02-26T10:26:48;4.10;;;2.47;;
79670;SDS011;69137;50.878;8.050;2024-02-26T10:29:13;4.65;;;2.63;;
79670;SDS011;69137;50.878;8.050;2024-02-26T10:31:41;4.87;;;2.30;;
79670;SDS011;69137;50.878;8.050;2024-02-26T10:34:07;3.30;;;2.00;;
79670;SDS011;69137;50.878;8.050;2024-02-26T10:36:36;2.90;;;2.05;;
79670;SDS011;69137;50.878;8.050;2024-02-26T10:39:05;4.40;;;2.50;;
79670;SDS011;69137;50.878;8.050;2024-02-26T10:41:30;5.68;;;2.83;;
79670;SDS011;69137;50.878;8.050;2024-02-26T10:43:56;3.88;;;2.38;;
79670;SDS011;69137;50.878;8.050;2024-02-26T10:46:22;3.80;;;2.10;;
79670;SDS011;69137;50.878;8.050;2024-02-26T10:48:50;5.33;;;2.37;;
79670;SDS011;69137;50.878;8.050;2024-02-26T10:51:16;3.88;;;2.22;;
79670;SDS011;69137;50.878;8.050;2024-02-26T10:53:54;4.43;;;2.50;;
79670;SDS011;69137;50.878;8.050;2024-02-26T10:56:23;3.55;;;2.15;;
79670;SDS011;69137;50.878;8.050;2024-02-26T10:58:50;5.22;;;2.72;;
79670;SDS011;69137;50.878;8.050;2024-02-26T11:01:17;4.78;;;2.47;;
79670;SDS011;69137;50.878;8.050;2024-02-26T11:03:44;4.28;;;2.22;;
79670;SDS011;69137;50.878;8.050;2024-02-26T11:06:09;3.03;;;2.15;;
79670;SDS011;69137;50.878;8.050;2024-02-26T11:08:36;3.33;;;2.38;;
79670;SDS011;69137;50.878;8.050;2024-02-26T11:11:01;4.15;;;2.47;;
79670;SDS011;69137;50.878;8.050;2024-02-26T11:13:28;5.40;;;2.80;;
79670;SDS011;69137;50.878;8.050;2024-02-26T11:15:55;4.07;;;2.35;;
79670;SDS011;69137;50.878;8.050;2024-02-26T11:18:22;3.88;;;2.38;;
79670;SDS011;69137;50.878;8.050;2024-02-26T11:20:48;4.28;;;2.40;;
79670;SDS011;69137;50.878;8.050;2024-02-26T11:23:15;3.80;;;2.65;;
79670;SDS011;69137;50.878;8.050;2024-02-26T11:25:40;4.37;;;2.63;;
79670;SDS011;69137;50.878;8.050;2024-02-26T11:28:07;5.10;;;2.38;;
79670;SDS011;69137;50.878;8.050;2024-02-26T11:30:38;4.38;;;2.30;;
79670;SDS011;69137;50.878;8.050;2024-02-26T11:33:07;8.63;;;2.55;;
79670;SDS011;69137;50.878;8.050;2024-02-26T11:35:34;4.32;;;2.45;;
79670;SDS011;69137;50.878;8.050;2024-02-26T11:38:01;5.10;;;2.50;;
79670;SDS011;69137;50.878;8.050;2024-02-26T11:40:26;6.80;;;2.30;;
79670;SDS011;69137;50.878;8.050;2024-02-26T11:42:52;3.88;;;2.08;;
79670;SDS011;69137;50.878;8.050;2024-02-26T11:48:02;5.30;;;2.60;;
79670;SDS011;69137;50.878;8.050;2024-02-26T11:51:01;4.43;;;2.45;;
79670;SDS011;69137;50.878;8.050;2024-02-26T11:53:27;4.57;;;2.47;;
79670;SDS011;69137;50.878;8.050;2024-02-26T11:58:40;5.55;;;2.33;;
79670;SDS011;69137;50.878;8.050;2024-02-26T12:01:35;6.35;;;3.35;;
79670;SDS011;69137;50.878;8.050;2024-02-26T12:04:14;2.90;;;1.98;;
79670;SDS011;69137;50.878;8.050;2024-02-26T12:09:36;6.45;;;2.67;;
79670;SDS011;69137;50.878;8.050;2024-02-26T12:12:13;4.22;;;2.83;;
79670;SDS011;69137;50.878;8.050;2024-02-26T12:14:52;4.78;;;2.65;;
79670;SDS011;69137;50.878;8.050;2024-02-26T12:17:21;4.57;;;2.55;;
79670;SDS011;69137;50.878;8.050;2024-02-26T12:19:50;4.20;;;2.60;;
79670;SDS011;69137;50.878;8.050;2024-02-26T12:22:16;5.72;;;2.90;;
79670;SDS011;69137;50.878;8.050;2024-02-26T12:24:42;5.93;;;2.92;;
79670;SDS011;69137;50.878;8.050;2024-02-26T12:27:08;4.43;;;2.63;;
79670;SDS011;69137;50.878;8.050;2024-02-26T12:29:33;5.67;;;3.00;;
79670;SDS011;69137;50.878;8.050;2024-02-26T12:31:59;5.90;;;3.10;;
79670;SDS011;69137;50.878;8.050;2024-02-26T12:34:24;7.93;;;3.53;;
79670;SDS011;69137;50.878;8.050;2024-02-26T12:36:51;4.68;;;2.92;;
79670;SDS011;69137;50.878;8.050;2024-02-26T12:39:18;6.55;;;3.50;;
79670;SDS011;69137;50.878;8.050;2024-02-26T12:41:45;4.88;;;3.33;;
79670;SDS011;69137;50.878;8.050;2024-02-26T12:44:14;4.88;;;2.92;;
79670;SDS011;69137;50.878;8.050;2024-02-26T12:46:40;4.50;;;2.45;;
79670;SDS011;69137;50.878;8.050;2024-02-26T12:49:06;5.00;;;2.70;;
79670;SDS011;69137;50.878;8.050;2024-02-26T12:51:32;5.68;;;2.83;;
79670;SDS011;69137;50.878;8.050;2024-02-26T12:53:58;4.85;;;2.70;;
79670;SDS011;69137;50.878;8.050;2024-02-26T12:56:23;6.00;;;2.85;;
79670;SDS011;69137;50.878;8.050;2024-02-26T12:58:51;4.35;;;2.78;;
79670;SDS011;69137;50.878;8.050;2024-02-26T13:01:18;5.55;;;3.10;;
79670;SDS011;69137;50.878;8.050;2024-02-26T13:03:48;5.18;;;3.05;;
79670;SDS011;69137;50.878;8.050;2024-02-26T13:06:15;3.90;;;2.53;;
79670;SDS011;69137;50.878;8.050;2024-02-26T13:08:41;5.50;;;2.70;;
79670;SDS011;69137;50.878;8.050;2024-02-26T13:11:06;4.33;;;2.60;;
79670;SDS011;69137;50.878;8.050;2024-02-26T13:13:32;4.33;;;2.67;;
79670;SDS011;69137;50.878;8.050;2024-02-26T13:16:01;4.77;;;2.53;;
79670;SDS011;69137;50.878;8.050;2024-02-26T13:18:39;3.67;;;2.53;;
79670;SDS011;69137;50.878;8.050;2024-02-26T13:21:10;4.53;;;2.13;;
79670;SDS011;69137;50.878;8.050;2024-02-26T13:23:38;5.05;;;3.03;;
79670;SDS011;69137;50.878;8.050;2024-02-26T13:26:04;4.13;;;2.42;;
79670;SDS011;69137;50.878;8.050;2024-02-26T13:28:30;4.80;;;3.17;;
79670;SDS011;69137;50.878;8.050;2024-02-26T13:30:55;5.82;;;2.85;;
79670;SDS011;69137;50.878;8.050;2024-02-26T13:33:22;4.85;;;2.53;;
79670;SDS011;69137;50.878;8.050;2024-02-26T13:35:48;5.85;;;3.22;;
79670;SDS011;69137;50.878;8.050;2024-02-26T13:38:13;4.77;;;2.53;;
79670;SDS011;69137;50.878;8.050;2024-02-26T13:40:39;3.80;;;2.63;;
79670;SDS011;69137;50.878;8.050;2024-02-26T13:43:04;3.92;;;2.10;;
79670;SDS011;69137;50.878;8.050;2024-02-26T13:45:30;4.73;;;2.70;;
79670;SDS011;69137;50.878;8.050;2024-02-26T13:47:59;4.22;;;2.60;;
79670;SDS011;69137;50.878;8.050;2024-02-26T13:50:27;4.57;;;2.38;;
79670;SDS011;69137;50.878;8.050;2024-02-26T13:52:52;4.63;;;2.70;;
79670;SDS011;69137;50.878;8.050;2024-02-26T13:55:19;4.70;;;3.03;;
79670;SDS011;69137;50.878;8.050;2024-02-26T13:57:45;5.60;;;3.00;;
79670;SDS011;69137;50.878;8.050;2024-02-26T14:00:11;5.10;;;2.47;;
79670;SDS011;69137;50.878;8.050;2024-02-26T14:02:37;3.90;;;2.50;;
79670;SDS011;69137;50.878;8.050;2024-02-26T14:05:02;3.07;;;2.03;;
79670;SDS011;69137;50.878;8.050;2024-02-26T14:07:29;4.70;;;2.45;;
79670;SDS011;69137;50.878;8.050;2024-02-26T14:09:56;4.50;;;2.67;;
79670;SDS011;69137;50.878;8.050;2024-02-26T14:12:22;5.93;;;2.70;;
79670;SDS011;69137;50.878;8.050;2024-02-26T14:14:48;4.80;;;2.77;;
79670;SDS011;69137;50.878;8.050;2024-02-26T14:17:13;4.38;;;2.60;;
79670;SDS011;69137;50.878;8.050;2024-02-26T14:19:39;5.55;;;2.80;;
79670;SDS011;69137;50.878;8.050;2024-02-26T14:22:10;4.95;;;2.63;;
79670;SDS011;69137;50.878;8.050;2024-02-26T14:24:36;4.43;;;2.53;;
79670;SDS011;69137;50.878;8.050;2024-02-26T14:27:01;5.85;;;3.88;;
79670;SDS011;69137;50.878;8.050;2024-02-26T14:29:27;5.47;;;3.30;;
79670;SDS011;69137;50.878;8.050;2024-02-26T14:31:52;4.32;;;2.88;;
79670;SDS011;69137;50.878;8.050;2024-02-26T14:34:18;4.90;;;2.90;;
79670;SDS011;69137;50.878;8.050;2024-02-26T14:36:43;4.82;;;2.53;;
79670;SDS011;69137;50.878;8.050;2024-02-26T14:39:09;4.15;;;2.55;;
79670;SDS011;69137;50.878;8.050;2024-02-26T14:41:37;6.55;;;3.15;;
79670;SDS011;69137;50.878;8.050;2024-02-26T14:44:03;5.78;;;2.85;;
79670;SDS011;69137;50.878;8.050;2024-02-26T14:46:28;6.30;;;2.88;;
79670;SDS011;69137;50.878;8.050;2024-02-26T14:48:53;4.47;;;2.90;;
79670;SDS011;69137;50.878;8.050;2024-02-26T14:51:19;5.97;;;2.97;;
79670;SDS011;69137;50.878;8.050;2024-02-26T14:53:44;7.33;;;3.27;;
79670;SDS011;69137;50.878;8.050;2024-02-26T14:56:09;4.93;;;3.10;;